createdAt,value
2023-03-20T00:02:19.834Z,22.60
2023-03-20T00:04:46.414Z,26.13
2023-03-20T00:07:13.154Z,23.52
2023-03-20T00:09:39.918Z,22.27
2023-03-20T00:12:06.700Z,25.20
2023-03-20T00:14:34.588Z,22.13
2023-03-20T00:17:02.199Z,20.20
2023-03-20T00:19:32.284Z,24.25
2023-03-20T00:21:58.917Z,26.02
2023-03-20T00:24:26.962Z,27.83
2023-03-20T00:26:54.284Z,26.63
2023-03-20T00:29:26.892Z,23.80
2023-03-20T00:31:54.856Z,21.73
2023-03-20T00:34:24.299Z,23.10
2023-03-20T00:36:52.142Z,22.17
2023-03-20T00:39:18.982Z,19.00
2023-03-20T00:41:54.970Z,20.75
2023-03-20T00:44:34.249Z,24.10
2023-03-20T00:47:05.012Z,21.90
2023-03-20T00:49:34.175Z,23.83
2023-03-20T00:52:03.447Z,22.33
2023-03-20T00:54:30.916Z,22.50
2023-03-20T00:57:06.480Z,24.65
2023-03-20T00:59:37.370Z,26.52
2023-03-20T01:02:04.410Z,25.48
2023-03-20T01:04:42.337Z,28.95
2023-03-20T01:07:13.884Z,31.13
2023-03-20T01:09:40.433Z,30.42
2023-03-20T01:12:08.106Z,28.75
2023-03-20T01:14:34.950Z,31.27
2023-03-20T01:17:01.613Z,28.60
2023-03-20T01:19:28.236Z,27.52
2023-03-20T01:21:54.864Z,30.15
2023-03-20T01:24:21.429Z,28.45
2023-03-20T01:26:49.298Z,29.23
2023-03-20T01:29:25.074Z,23.85
2023-03-20T01:31:52.786Z,29.08
2023-03-20T01:34:20.994Z,28.13
2023-03-20T01:36:59.297Z,28.27
2023-03-20T01:39:35.120Z,28.05
2023-03-20T01:42:03.294Z,27.52
2023-03-20T01:44:33.038Z,27.92
2023-03-20T01:47:02.781Z,30.65
2023-03-20T01:49:29.332Z,29.30
2023-03-20T01:51:57.307Z,30.75
2023-03-20T01:54:31.913Z,29.73
2023-03-20T01:57:20.635Z,30.08
2023-03-20T01:59:48.770Z,29.73
2023-03-20T02:02:19.583Z,29.40
2023-03-20T02:04:50.305Z,30.35
2023-03-20T02:07:21.158Z,32.67
2023-03-20T02:09:49.034Z,27.55
2023-03-20T02:12:17.010Z,30.55
2023-03-20T02:14:46.865Z,30.08
2023-03-20T02:17:13.848Z,35.00
2023-03-20T02:19:43.471Z,31.58
2023-03-20T02:22:43.731Z,31.83
2023-03-20T02:25:34.977Z,31.08
2023-03-20T02:28:23.551Z,31.42
2023-03-20T02:31:05.466Z,32.28
2023-03-20T02:34:02.204Z,37.50
2023-03-20T02:36:54.779Z,34.05
2023-03-20T02:39:36.381Z,36.80
2023-03-20T02:42:17.679Z,33.65
2023-03-20T02:44:55.932Z,33.20
2023-03-20T02:47:34.194Z,29.98
2023-03-20T02:50:06.787Z,27.70
2023-03-20T02:52:42.484Z,35.05
2023-03-20T02:55:23.313Z,32.42
2023-03-20T02:58:01.998Z,33.63
2023-03-20T03:00:50.815Z,34.05
2023-03-20T03:03:23.166Z,34.22
2023-03-20T03:06:00.407Z,32.00
2023-03-20T03:08:31.542Z,29.33
2023-03-20T03:11:06.276Z,29.13
2023-03-20T03:13:37.562Z,28.42
2023-03-20T03:16:10.411Z,31.98
2023-03-20T03:18:41.069Z,29.63
2023-03-20T03:21:09.213Z,30.77
2023-03-20T03:23:43.714Z,29.10
2023-03-20T03:26:18.752Z,30.95
2023-03-20T03:28:51.187Z,29.95
2023-03-20T03:31:19.274Z,31.15
2023-03-20T03:33:48.972Z,29.90
2023-03-20T03:36:43.338Z,25.33
2023-03-20T03:39:38.731Z,27.95
2023-03-20T03:42:37.991Z,28.23
2023-03-20T03:45:29.426Z,30.55
2023-03-20T03:48:03.192Z,27.33
2023-03-20T03:50:40.644Z,28.05
2023-03-20T03:53:12.088Z,23.83
2023-03-20T03:55:43.339Z,25.92
2023-03-20T03:58:22.519Z,27.67
2023-03-20T04:00:52.472Z,23.70
2023-03-20T04:03:24.157Z,26.80
2023-03-20T04:05:54.484Z,25.65
2023-03-20T04:08:21.178Z,25.02
2023-03-20T04:10:47.732Z,24.15
2023-03-20T04:13:14.329Z,27.95
2023-03-20T04:15:41.038Z,28.35
2023-03-20T04:18:07.611Z,24.15
2023-03-20T04:20:34.128Z,26.73
2023-03-20T04:23:02.149Z,26.80
2023-03-20T04:25:28.790Z,27.08
2023-03-20T04:27:56.227Z,31.65
2023-03-20T04:30:23.171Z,24.63
2023-03-20T04:32:49.782Z,22.80
2023-03-20T04:35:16.728Z,25.67
2023-03-20T04:37:43.384Z,23.50
2023-03-20T04:40:10.730Z,26.55
2023-03-20T04:42:37.298Z,27.90
2023-03-20T04:45:04.402Z,29.70
2023-03-20T04:47:31.021Z,27.30
2023-03-20T04:49:57.739Z,28.20
2023-03-20T04:52:24.441Z,24.85
2023-03-20T04:54:51.171Z,28.05
2023-03-20T04:57:17.771Z,25.92
2023-03-20T04:59:44.356Z,27.20
2023-03-20T05:02:14.918Z,26.27
2023-03-20T05:04:42.989Z,28.75
2023-03-20T05:07:09.744Z,29.35
2023-03-20T05:09:36.421Z,27.30
2023-03-20T05:12:03.212Z,30.05
2023-03-20T05:14:29.739Z,27.80
2023-03-20T05:16:56.346Z,26.55
2023-03-20T05:19:23.176Z,27.63
2023-03-20T05:21:49.708Z,28.60
2023-03-20T05:24:16.193Z,27.58
2023-03-20T05:26:42.731Z,30.27
2023-03-20T05:29:09.341Z,27.13
2023-03-20T05:31:35.840Z,30.90
2023-03-20T05:34:02.408Z,32.50
2023-03-20T05:36:29.008Z,28.13
2023-03-20T05:38:55.525Z,29.83
2023-03-20T05:41:22.026Z,28.98
2023-03-20T05:43:48.750Z,29.42
2023-03-20T05:46:16.260Z,29.30
2023-03-20T05:48:42.800Z,25.90
2023-03-20T05:51:09.379Z,27.73
2023-03-20T05:53:36.126Z,27.90
2023-03-20T05:56:02.819Z,23.20
2023-03-20T05:58:29.403Z,19.13
2023-03-20T06:00:59.966Z,21.83
2023-03-20T06:03:26.559Z,22.85
2023-03-20T06:05:53.112Z,22.88
2023-03-20T06:08:19.668Z,27.25
2023-03-20T06:10:46.485Z,25.10
2023-03-20T06:13:13.164Z,25.70
2023-03-20T06:15:39.952Z,31.83
2023-03-20T06:18:06.582Z,22.92
2023-03-20T06:20:33.189Z,28.92
2023-03-20T06:22:59.984Z,26.45
2023-03-20T06:25:26.517Z,27.80
2023-03-20T06:27:53.149Z,30.48
2023-03-20T06:30:19.776Z,31.77
2023-03-20T06:32:46.685Z,29.13
2023-03-20T06:35:13.587Z,33.00
2023-03-20T06:37:41.121Z,37.72
2023-03-20T06:40:08.451Z,33.10
2023-03-20T06:42:35.005Z,33.25
2023-03-20T06:45:01.634Z,38.13
2023-03-20T06:47:28.219Z,38.63
2023-03-20T06:49:54.728Z,33.90
2023-03-20T06:52:25.256Z,35.13
2023-03-20T06:54:52.179Z,38.03
2023-03-20T06:57:18.782Z,40.45
2023-03-20T06:59:45.529Z,36.33
2023-03-20T07:02:12.230Z,37.78
2023-03-20T07:04:39.379Z,32.97
2023-03-20T07:07:06.153Z,35.72
2023-03-20T07:09:33.271Z,38.47
2023-03-20T07:12:00.635Z,34.65
2023-03-20T07:14:27.160Z,36.63
2023-03-20T07:16:54.786Z,37.22
2023-03-20T07:19:22.102Z,33.25
2023-03-20T07:21:48.751Z,32.80
2023-03-20T07:24:15.274Z,30.80
2023-03-20T07:26:42.049Z,31.67
2023-03-20T07:29:08.634Z,33.08
2023-03-20T07:31:35.265Z,29.13
2023-03-20T07:34:02.120Z,31.10
2023-03-20T07:36:28.770Z,35.35
2023-03-20T07:38:55.573Z,29.48
2023-03-20T07:41:22.186Z,30.05
2023-03-20T07:43:48.675Z,31.50
2023-03-20T07:46:15.459Z,33.25
2023-03-20T07:48:42.160Z,32.22
2023-03-20T07:51:08.743Z,30.50
2023-03-20T07:53:35.641Z,30.77
2023-03-20T07:56:02.308Z,31.73
2023-03-20T07:58:28.849Z,26.48
2023-03-20T08:00:58.225Z,31.60
2023-03-20T08:03:24.991Z,30.77
2023-03-20T08:05:51.524Z,31.55
2023-03-20T08:08:18.357Z,33.80
2023-03-20T08:10:45.336Z,33.00
2023-03-20T08:13:11.886Z,30.20
2023-03-20T08:15:39.274Z,28.05
2023-03-20T08:18:06.460Z,28.63
2023-03-20T08:20:33.078Z,28.13
2023-03-20T08:22:59.646Z,28.25
2023-03-20T08:25:26.199Z,27.45
2023-03-20T08:27:52.736Z,26.40
2023-03-20T08:30:19.446Z,25.98
2023-03-20T08:32:46.200Z,23.75
2023-03-20T08:35:29.751Z,22.65
2023-03-20T08:37:59.167Z,24.13
2023-03-20T08:40:25.766Z,23.00
2023-03-20T08:42:52.397Z,22.75
2023-03-20T08:45:19.073Z,22.75
2023-03-20T08:47:48.878Z,20.83
2023-03-20T08:50:16.180Z,20.02
2023-03-20T08:52:44.408Z,26.17
2023-03-20T08:55:12.080Z,21.65
2023-03-20T08:57:38.655Z,20.05
2023-03-20T09:00:07.395Z,25.90
2023-03-20T09:02:34.666Z,20.20
2023-03-20T09:05:01.574Z,22.58
2023-03-20T09:07:28.393Z,21.90
2023-03-20T09:09:55.076Z,20.67
2023-03-20T09:12:22.045Z,22.63
2023-03-20T09:14:48.569Z,18.20
2023-03-20T09:17:15.632Z,21.05
2023-03-20T09:19:44.633Z,18.13
2023-03-20T09:22:15.424Z,18.00
2023-03-20T09:24:42.044Z,16.38
2023-03-20T09:27:08.630Z,14.85
2023-03-20T09:29:35.204Z,15.80
2023-03-20T09:32:02.315Z,15.10
2023-03-20T09:34:29.475Z,15.98
2023-03-20T09:36:56.204Z,14.05
2023-03-20T09:39:23.282Z,17.55
2023-03-20T09:41:57.102Z,14.40
2023-03-20T09:44:24.330Z,16.42
2023-03-20T09:47:16.440Z,15.00
2023-03-20T09:49:54.467Z,14.68
2023-03-20T09:52:21.179Z,16.92
2023-03-20T09:55:10.396Z,18.30
2023-03-20T09:57:43.258Z,11.50
2023-03-20T10:00:19.528Z,15.05
2023-03-20T10:02:56.934Z,14.13
2023-03-20T10:05:30.342Z,14.50
2023-03-20T10:08:01.240Z,12.98
2023-03-20T10:10:57.907Z,11.75
2023-03-20T10:13:45.571Z,12.00
2023-03-20T10:16:14.926Z,7.30
2023-03-20T10:18:51.543Z,8.55
2023-03-20T10:21:28.986Z,11.50
2023-03-20T10:24:07.098Z,12.23
2023-03-20T10:26:35.799Z,6.88
2023-03-20T10:29:10.174Z,9.45
2023-03-20T10:31:57.374Z,6.80
2023-03-20T10:34:38.758Z,5.82
2023-03-20T10:37:24.340Z,7.97
2023-03-20T10:40:30.339Z,10.48
2023-03-20T10:43:19.218Z,8.63
2023-03-20T10:46:13.393Z,10.20
2023-03-20T10:48:49.034Z,7.57
2023-03-20T10:51:19.205Z,9.20
2023-03-20T10:54:04.221Z,9.13
2023-03-20T10:56:42.577Z,8.60
2023-03-20T10:59:20.758Z,5.82
2023-03-20T11:01:47.684Z,4.90
2023-03-20T11:04:14.244Z,8.05
2023-03-20T11:06:53.154Z,5.80
2023-03-20T11:09:22.534Z,7.07
2023-03-20T11:11:52.860Z,11.43
2023-03-20T11:14:25.842Z,8.63
2023-03-20T11:16:54.734Z,7.45
2023-03-20T11:19:23.298Z,10.30
2023-03-20T11:21:51.371Z,8.40
2023-03-20T11:24:37.230Z,6.50
2023-03-20T11:27:12.694Z,7.32
2023-03-20T11:29:42.678Z,7.68
2023-03-20T11:32:39.205Z,5.93
2023-03-20T11:35:20.911Z,9.52
2023-03-20T11:37:50.817Z,7.40
2023-03-20T11:40:29.975Z,9.40
2023-03-20T11:42:57.961Z,8.40
2023-03-20T11:45:26.305Z,8.65
2023-03-20T11:47:55.512Z,8.38
2023-03-20T11:50:26.949Z,11.52
2023-03-20T11:52:54.195Z,10.18
2023-03-20T11:55:38.964Z,11.07
2023-03-20T11:58:07.164Z,6.53
2023-03-20T12:00:40.527Z,7.55
2023-03-20T12:03:45.149Z,8.57
2023-03-20T12:06:25.999Z,7.20
2023-03-20T12:09:04.637Z,6.95
2023-03-20T12:11:49.094Z,8.52
2023-03-20T12:14:54.994Z,10.90
2023-03-20T12:17:43.197Z,11.13
2023-03-20T12:20:32.868Z,5.90
2023-03-20T12:23:12.216Z,6.60
2023-03-20T12:25:56.138Z,10.57
2023-03-20T12:28:30.828Z,11.15
2023-03-20T12:31:42.501Z,9.38
2023-03-20T12:34:24.433Z,11.18
2023-03-20T12:36:57.604Z,9.65
2023-03-20T12:39:34.397Z,10.95
2023-03-20T12:42:34.792Z,6.53
2023-03-20T12:45:21.510Z,7.65
2023-03-20T12:48:01.799Z,8.30
2023-03-20T12:50:32.303Z,7.90
2023-03-20T12:53:17.913Z,8.73
2023-03-20T12:56:18.573Z,11.30
2023-03-20T12:58:49.479Z,13.43
2023-03-20T13:01:31.185Z,7.22
2023-03-20T13:04:03.529Z,9.70
2023-03-20T13:06:45.503Z,12.05
2023-03-20T13:09:40.306Z,7.63
2023-03-20T13:12:12.937Z,5.50
2023-03-20T13:14:58.767Z,8.95
2023-03-20T13:17:28.203Z,7.28
2023-03-20T13:20:34.670Z,8.32
2023-03-20T13:23:33.852Z,7.50
2023-03-20T13:26:06.410Z,6.45
2023-03-20T13:28:45.702Z,8.95
2023-03-20T13:31:27.601Z,11.50
2023-03-20T13:34:26.626Z,7.90
2023-03-20T13:37:24.548Z,10.10
2023-03-20T13:40:04.880Z,13.55
2023-03-20T13:42:57.589Z,7.05
2023-03-20T13:45:31.790Z,11.77
2023-03-20T13:48:03.741Z,7.85
2023-03-20T13:50:41.844Z,9.65
2023-03-20T13:53:28.497Z,11.85
2023-03-20T13:56:11.481Z,8.45
2023-03-20T13:58:49.819Z,8.32
2023-03-20T14:01:39.618Z,6.65
2023-03-20T14:04:13.859Z,12.98
2023-03-20T14:06:43.464Z,7.57
2023-03-20T14:09:30.743Z,6.05
2023-03-20T14:12:04.082Z,7.25
2023-03-20T14:14:33.796Z,6.60
2023-03-20T14:17:07.874Z,7.18
2023-03-20T14:19:37.746Z,7.90
2023-03-20T14:22:05.797Z,6.65
2023-03-20T14:24:37.268Z,7.22
2023-03-20T14:27:05.650Z,5.88
2023-03-20T14:29:33.980Z,6.07
2023-03-20T14:32:25.806Z,6.60
2023-03-20T14:35:01.916Z,6.45
2023-03-20T14:37:33.094Z,8.43
2023-03-20T14:40:17.704Z,5.10
2023-03-20T14:42:55.035Z,8.73
2023-03-20T14:45:45.426Z,8.95
2023-03-20T14:48:22.793Z,8.85
2023-03-20T14:50:58.345Z,6.60
2023-03-20T14:53:26.674Z,8.57
2023-03-20T14:55:56.310Z,5.82
2023-03-20T14:58:41.545Z,4.70
2023-03-20T15:01:17.734Z,7.75
2023-03-20T15:03:51.343Z,7.25
2023-03-20T15:06:21.248Z,8.48
2023-03-20T15:08:52.826Z,6.45
2023-03-20T15:11:22.477Z,6.95
2023-03-20T15:13:50.253Z,9.57
2023-03-20T15:16:16.888Z,7.38
2023-03-20T15:18:51.415Z,9.05
2023-03-20T15:21:27.138Z,8.90
2023-03-20T15:23:53.666Z,6.25
2023-03-20T15:26:22.485Z,8.00
2023-03-20T15:28:49.432Z,5.95
2023-03-20T15:31:30.127Z,10.88
2023-03-20T15:33:57.979Z,9.93
2023-03-20T15:36:28.554Z,8.68
2023-03-20T15:39:05.763Z,6.43
2023-03-20T15:41:34.937Z,7.30
2023-03-20T15:44:12.650Z,8.48
2023-03-20T15:46:39.319Z,6.95
2023-03-20T15:49:06.055Z,8.55
2023-03-20T15:51:35.297Z,15.48
2023-03-20T15:54:08.085Z,6.82
2023-03-20T15:56:35.985Z,10.73
2023-03-20T15:59:02.792Z,7.47
2023-03-20T16:01:32.179Z,10.55
2023-03-20T16:03:59.982Z,5.80
2023-03-20T16:06:27.352Z,8.43
2023-03-20T16:09:02.408Z,7.80
2023-03-20T16:12:13.437Z,8.05
2023-03-20T16:14:40.551Z,7.90
2023-03-20T16:17:07.393Z,8.95
2023-03-20T16:19:34.003Z,5.53
2023-03-20T16:22:11.268Z,8.57
2023-03-20T16:24:40.354Z,6.30
2023-03-20T16:27:09.067Z,9.85
2023-03-20T16:29:37.166Z,8.15
2023-03-20T16:32:45.655Z,9.48
2023-03-20T16:35:26.609Z,5.25
2023-03-20T16:37:56.256Z,5.57
2023-03-20T16:40:33.038Z,6.10
2023-03-20T16:43:20.551Z,6.95
2023-03-20T16:45:55.471Z,9.20
2023-03-20T16:48:42.537Z,13.75
2023-03-20T16:51:24.678Z,5.90
2023-03-20T16:53:56.500Z,10.18
2023-03-20T16:56:23.042Z,6.30
2023-03-20T16:58:49.779Z,5.53
2023-03-20T17:01:23.835Z,8.45
2023-03-20T17:03:56.382Z,8.60
2023-03-20T17:06:22.932Z,9.75
2023-03-20T17:08:55.477Z,4.90
2023-03-20T17:11:30.490Z,6.07
2023-03-20T17:13:56.999Z,9.60
2023-03-20T17:16:24.927Z,9.48
2023-03-20T17:19:03.000Z,13.40
2023-03-20T17:21:30.099Z,8.52
2023-03-20T17:23:56.773Z,10.43
2023-03-20T17:26:23.989Z,6.72
2023-03-20T17:28:50.697Z,7.75
2023-03-20T17:31:18.437Z,6.30
2023-03-20T17:33:45.831Z,8.75
2023-03-20T17:36:27.201Z,5.25
2023-03-20T17:38:55.291Z,7.80
2023-03-20T17:41:23.015Z,10.63
2023-03-20T17:43:51.496Z,7.05
2023-03-20T17:46:29.182Z,8.10
2023-03-20T17:49:02.193Z,10.13
2023-03-20T17:51:29.115Z,18.48
2023-03-20T17:53:57.980Z,18.75
2023-03-20T17:56:32.695Z,25.80
2023-03-20T17:59:00.484Z,13.65
2023-03-20T18:01:32.110Z,14.45
2023-03-20T18:03:59.167Z,12.43
2023-03-20T18:06:29.238Z,6.75
2023-03-20T18:08:57.801Z,14.13
2023-03-20T18:11:25.402Z,13.15
2023-03-20T18:13:52.002Z,11.30
2023-03-20T18:16:24.257Z,10.35
2023-03-20T18:18:52.613Z,12.63
2023-03-20T18:21:19.650Z,10.85
2023-03-20T18:23:46.666Z,11.23
2023-03-20T18:26:20.925Z,7.60
2023-03-20T18:28:48.387Z,9.75
2023-03-20T18:31:18.845Z,10.18
2023-03-20T18:33:50.246Z,12.15
2023-03-20T18:36:22.222Z,11.98
2023-03-20T18:41:15.663Z,11.07
2023-03-20T18:43:42.967Z,13.07
2023-03-20T18:46:20.652Z,10.02
2023-03-20T18:48:48.205Z,21.23
2023-03-20T18:51:15.661Z,9.93
2023-03-20T18:53:42.742Z,12.02
2023-03-20T18:56:17.955Z,15.27
2023-03-20T18:58:45.703Z,11.98
2023-03-20T19:01:12.984Z,10.30
2023-03-20T19:03:41.596Z,10.70
2023-03-20T19:06:23.157Z,9.93
2023-03-20T19:08:51.348Z,9.57
2023-03-20T19:11:21.403Z,9.68
2023-03-20T19:13:53.051Z,9.43
2023-03-20T19:16:35.208Z,10.18
2023-03-20T19:21:32.513Z,11.02
2023-03-20T19:24:01.384Z,12.70
2023-03-20T19:26:30.408Z,10.57
2023-03-20T19:28:58.765Z,9.70
2023-03-20T19:31:26.143Z,11.55
2023-03-20T19:33:53.335Z,13.65
2023-03-20T19:36:33.385Z,13.52
2023-03-20T19:39:01.766Z,8.10
2023-03-20T19:41:28.944Z,11.70
2023-03-20T19:43:56.766Z,11.98
2023-03-20T19:46:39.074Z,12.55
2023-03-20T19:49:17.408Z,7.85
2023-03-20T19:51:45.003Z,13.85
2023-03-20T19:54:11.533Z,12.13
2023-03-20T19:56:38.084Z,18.17
2023-03-20T19:59:06.110Z,13.65
2023-03-20T20:01:32.940Z,13.75
2023-03-20T20:03:59.726Z,11.73
2023-03-20T20:06:31.234Z,18.90
2023-03-20T20:08:58.524Z,18.52
2023-03-20T20:11:25.057Z,16.23
2023-03-20T20:14:05.631Z,15.32
2023-03-20T20:16:37.426Z,10.73
2023-03-20T20:19:04.218Z,12.88
2023-03-20T20:24:17.662Z,9.40
2023-03-20T20:27:07.031Z,12.65
2023-03-20T20:29:37.990Z,10.90
2023-03-20T20:32:04.873Z,11.13
2023-03-20T20:40:06.887Z,9.20
2023-03-20T20:42:33.607Z,9.25
2023-03-20T20:45:00.276Z,11.88
2023-03-20T20:47:26.868Z,10.38
2023-03-20T20:49:53.875Z,10.27
2023-03-20T20:52:20.794Z,12.40
2023-03-20T20:54:48.169Z,14.52
2023-03-20T20:57:15.647Z,8.70
2023-03-20T20:59:42.270Z,10.18
2023-03-20T21:02:13.409Z,11.43
2023-03-20T21:04:41.949Z,10.77
2023-03-20T21:07:13.173Z,14.07
2023-03-20T21:09:40.562Z,13.98
2023-03-20T21:12:08.619Z,12.93
2023-03-20T21:14:35.505Z,8.43
2023-03-20T21:17:02.425Z,12.55
2023-03-20T21:19:30.632Z,12.75
2023-03-20T21:21:57.428Z,7.85
2023-03-20T21:24:33.784Z,8.77
2023-03-20T21:27:05.674Z,13.50
2023-03-20T21:29:32.332Z,8.13
2023-03-20T21:31:58.960Z,11.98
2023-03-20T21:34:26.145Z,12.38
2023-03-20T21:36:52.760Z,10.23
2023-03-20T21:39:19.746Z,10.50
2023-03-20T21:41:46.676Z,10.88
2023-03-20T21:44:17.599Z,11.50
2023-03-20T21:56:03.340Z,21.60
2023-03-20T22:04:00.554Z,13.95
2023-03-20T22:09:52.261Z,12.68
2023-03-20T22:12:33.568Z,13.55
2023-03-20T22:17:59.454Z,17.73
2023-03-20T22:23:40.462Z,14.82
2023-03-20T22:26:33.912Z,18.42
2023-03-20T22:40:21.661Z,17.13
2023-03-20T22:42:51.437Z,16.70
2023-03-20T22:45:12.184Z,22.50
2023-03-20T22:47:38.991Z,15.05
2023-03-20T22:50:06.252Z,17.17
2023-03-20T22:52:48.038Z,13.27
2023-03-20T22:55:17.302Z,14.43
2023-03-20T22:57:56.216Z,20.90
2023-03-20T23:00:30.640Z,11.55
2023-03-20T23:03:06.741Z,15.05
2023-03-20T23:05:41.226Z,12.98
2023-03-20T23:08:08.791Z,14.20
2023-03-20T23:10:37.951Z,16.08
2023-03-20T23:13:04.782Z,10.80
2023-03-20T23:15:31.743Z,18.00
2023-03-20T23:17:58.647Z,20.35
2023-03-20T23:20:25.449Z,18.20
2023-03-20T23:22:51.995Z,21.85
2023-03-20T23:25:31.052Z,15.80
2023-03-20T23:28:06.158Z,12.40
2023-03-20T23:30:41.930Z,20.35
2023-03-20T23:33:10.838Z,14.98
2023-03-20T23:35:37.667Z,15.93
2023-03-20T23:38:04.245Z,15.30
2023-03-20T23:40:31.092Z,11.05
2023-03-20T23:42:57.736Z,16.40
2023-03-20T23:45:24.354Z,13.68
2023-03-20T23:47:51.062Z,16.05
2023-03-20T23:50:31.913Z,15.68
2023-03-20T23:53:17.528Z,17.60
2023-03-20T23:55:47.987Z,13.15
2023-03-20T23:58:15.626Z,15.40
